createdAt,value
2022-12-31T00:01:13.875Z,87.20
2022-12-31T00:03:42.365Z,87.42
2022-12-31T00:06:16.596Z,87.13
2022-12-31T00:08:44.433Z,88.03
2022-12-31T00:11:13.102Z,87.93
2022-12-31T00:13:41.045Z,87.90
2022-12-31T00:16:12.476Z,89.17
2022-12-31T00:18:40.495Z,89.01
2022-12-31T00:21:09.155Z,88.29
2022-12-31T00:23:38.317Z,88.35
2022-12-31T00:26:07.884Z,88.92
2022-12-31T00:28:37.653Z,89.88
2022-12-31T00:31:09.837Z,91.60
2022-12-31T00:33:37.683Z,91.79
2022-12-31T00:36:11.481Z,90.78
2022-12-31T00:38:41.289Z,91.82
2022-12-31T00:41:08.964Z,91.53
2022-12-31T00:43:36.819Z,91.27
2022-12-31T00:46:05.804Z,91.17
2022-12-31T00:48:34.244Z,90.37
2022-12-31T00:51:02.696Z,90.30
2022-12-31T00:53:30.489Z,90.55
2022-12-31T00:56:06.094Z,91.18
2022-12-31T00:58:34.225Z,91.08
2022-12-31T01:01:09.575Z,90.10
2022-12-31T01:03:37.490Z,90.86
2022-12-31T01:06:05.338Z,91.65
2022-12-31T01:08:32.859Z,91.08
2022-12-31T01:11:22.017Z,91.95
2022-12-31T01:13:53.897Z,91.20
2022-12-31T01:16:23.515Z,91.88
2022-12-31T01:18:51.919Z,90.91
2022-12-31T01:21:20.590Z,91.98
2022-12-31T01:23:48.109Z,91.40
2022-12-31T01:26:19.111Z,91.77
2022-12-31T01:28:47.199Z,91.68
2022-12-31T01:31:17.180Z,92.03
2022-12-31T01:33:44.981Z,92.47
2022-12-31T01:36:14.187Z,91.67
2022-12-31T01:38:42.217Z,92.14
2022-12-31T01:41:12.959Z,92.35
2022-12-31T01:43:48.345Z,92.00
2022-12-31T01:46:24.522Z,92.30
2022-12-31T01:48:57.156Z,92.07
2022-12-31T01:51:28.211Z,92.48
2022-12-31T01:53:56.263Z,92.38
2022-12-31T01:56:24.826Z,92.73
2022-12-31T01:58:56.774Z,92.90
2022-12-31T02:01:27.872Z,92.43
2022-12-31T02:03:56.682Z,91.87
2022-12-31T02:06:29.870Z,92.70
2022-12-31T02:08:58.953Z,93.13
2022-12-31T02:11:29.107Z,93.01
2022-12-31T02:14:01.204Z,93.28
2022-12-31T02:16:35.319Z,93.58
2022-12-31T02:19:18.334Z,93.49
2022-12-31T02:21:53.492Z,93.04
2022-12-31T02:24:35.800Z,93.41
2022-12-31T02:27:09.775Z,91.94
2022-12-31T02:30:08.415Z,91.94
2022-12-31T02:32:46.709Z,91.84
2022-12-31T02:35:20.137Z,91.04
2022-12-31T02:37:53.079Z,90.70
2022-12-31T02:40:23.128Z,90.36
2022-12-31T02:42:55.258Z,89.94
2022-12-31T02:45:30.006Z,90.16
2022-12-31T02:48:13.602Z,89.85
2022-12-31T02:50:56.216Z,89.47
2022-12-31T02:53:40.225Z,90.23
2022-12-31T02:56:17.443Z,89.65
2022-12-31T02:59:12.034Z,89.82
2022-12-31T03:02:05.314Z,90.46
2022-12-31T03:04:36.059Z,90.73
2022-12-31T03:07:05.891Z,90.33
2022-12-31T03:09:33.584Z,90.45
2022-12-31T03:12:19.924Z,90.61
2022-12-31T03:14:47.502Z,90.31
2022-12-31T03:17:16.499Z,90.56
2022-12-31T03:20:01.344Z,90.50
2022-12-31T03:22:28.892Z,90.73
2022-12-31T03:25:16.688Z,91.14
2022-12-31T03:27:44.581Z,90.70
2022-12-31T03:30:13.600Z,90.30
2022-12-31T03:32:43.325Z,90.27
2022-12-31T03:35:12.942Z,90.51
2022-12-31T03:37:41.401Z,90.39
2022-12-31T03:40:11.349Z,90.22
2022-12-31T03:42:38.963Z,90.87
2022-12-31T03:45:07.518Z,90.57
2022-12-31T03:47:34.992Z,90.02
2022-12-31T03:50:04.086Z,89.89
2022-12-31T03:52:31.555Z,89.49
2022-12-31T03:54:59.052Z,89.72
2022-12-31T03:57:26.600Z,88.43
2022-12-31T03:59:54.054Z,88.38
2022-12-31T04:02:28.086Z,88.10
2022-12-31T04:04:56.224Z,87.90
2022-12-31T04:07:25.141Z,87.07
2022-12-31T04:09:52.612Z,87.46
2022-12-31T04:12:20.167Z,87.22
2022-12-31T04:14:47.641Z,86.66
2022-12-31T04:17:15.128Z,86.43
2022-12-31T04:19:42.616Z,86.20
2022-12-31T04:22:10.254Z,86.08
2022-12-31T04:24:39.095Z,86.23
2022-12-31T04:27:08.065Z,85.68
2022-12-31T04:29:36.008Z,86.09
2022-12-31T04:32:04.055Z,85.67
2022-12-31T04:34:31.911Z,85.67
2022-12-31T04:37:01.972Z,86.12
2022-12-31T04:39:29.494Z,87.28
2022-12-31T04:41:58.339Z,87.87
2022-12-31T04:44:25.831Z,87.29
2022-12-31T04:46:53.472Z,87.14
2022-12-31T04:49:21.086Z,86.74
2022-12-31T04:51:48.559Z,86.55
2022-12-31T04:54:16.027Z,86.35
2022-12-31T04:56:43.496Z,85.62
2022-12-31T04:59:12.892Z,85.49
2022-12-31T05:01:40.460Z,85.13
2022-12-31T05:04:07.987Z,84.84
2022-12-31T05:06:35.528Z,84.03
2022-12-31T05:09:03.005Z,83.68
2022-12-31T05:11:30.554Z,83.65
2022-12-31T05:13:58.020Z,83.04
2022-12-31T05:16:26.887Z,82.94
2022-12-31T05:18:54.467Z,82.84
2022-12-31T05:21:22.592Z,82.72
2022-12-31T05:23:50.617Z,82.64
2022-12-31T05:26:18.275Z,81.90
2022-12-31T05:28:45.752Z,82.10
2022-12-31T05:31:14.346Z,82.03
2022-12-31T05:33:43.247Z,81.59
2022-12-31T05:36:10.819Z,81.68
2022-12-31T05:38:38.888Z,81.58
2022-12-31T05:41:08.733Z,81.45
2022-12-31T05:43:36.206Z,81.28
2022-12-31T05:46:05.206Z,81.01
2022-12-31T05:48:33.158Z,80.13
2022-12-31T05:51:01.961Z,80.50
2022-12-31T05:53:29.448Z,80.47
2022-12-31T05:55:56.956Z,80.16
2022-12-31T05:58:24.478Z,80.04
2022-12-31T06:00:52.270Z,80.00
2022-12-31T06:03:19.836Z,79.20
2022-12-31T06:05:47.479Z,79.21
2022-12-31T06:08:16.306Z,79.47
2022-12-31T06:10:43.819Z,79.35
2022-12-31T06:13:11.324Z,79.15
2022-12-31T06:15:40.408Z,79.19
2022-12-31T06:18:08.297Z,78.97
2022-12-31T06:20:37.591Z,79.30
2022-12-31T06:23:05.435Z,79.26
2022-12-31T06:25:35.534Z,78.63
2022-12-31T06:28:03.075Z,78.85
2022-12-31T06:30:30.577Z,79.16
2022-12-31T06:32:58.142Z,79.21
2022-12-31T06:35:25.656Z,79.42
2022-12-31T06:37:53.374Z,79.01
2022-12-31T06:40:20.859Z,78.88
2022-12-31T06:42:53.399Z,78.79
2022-12-31T06:45:25.326Z,78.48
2022-12-31T06:47:52.792Z,78.97
2022-12-31T06:50:20.327Z,79.01
2022-12-31T06:52:47.761Z,78.40
2022-12-31T06:55:16.416Z,78.66
2022-12-31T06:57:44.486Z,78.72
2022-12-31T07:00:15.004Z,78.67
2022-12-31T07:03:10.171Z,78.35
2022-12-31T07:05:46.893Z,78.10
2022-12-31T07:08:28.057Z,78.50
2022-12-31T07:11:01.585Z,78.72
2022-12-31T07:14:05.505Z,78.82
2022-12-31T07:16:48.105Z,78.06
2022-12-31T07:19:28.023Z,78.70
2022-12-31T07:21:59.338Z,78.30
2022-12-31T07:24:27.644Z,77.95
2022-12-31T07:27:13.710Z,77.83
2022-12-31T07:29:57.550Z,77.93
2022-12-31T07:32:42.573Z,77.53
2022-12-31T07:35:18.398Z,77.83
2022-12-31T07:37:52.537Z,77.96
2022-12-31T07:40:30.031Z,77.70
2022-12-31T07:43:08.529Z,76.90
2022-12-31T07:45:43.447Z,77.28
2022-12-31T07:48:23.389Z,76.87
2022-12-31T07:50:51.758Z,77.39
2022-12-31T07:53:19.757Z,77.31
2022-12-31T07:55:47.688Z,76.81
2022-12-31T07:58:23.046Z,76.64
2022-12-31T08:00:52.564Z,76.86
2022-12-31T08:03:36.023Z,77.12
2022-12-31T08:06:12.715Z,76.18
2022-12-31T08:08:50.585Z,76.87
2022-12-31T08:11:26.600Z,76.49
2022-12-31T08:13:56.997Z,75.89
2022-12-31T08:16:25.006Z,75.92
2022-12-31T08:18:54.495Z,75.91
2022-12-31T08:21:34.820Z,75.57
2022-12-31T08:24:13.507Z,75.25
2022-12-31T08:26:53.032Z,74.94
2022-12-31T08:29:34.644Z,74.48
2022-12-31T08:32:12.962Z,73.87
2022-12-31T08:34:53.580Z,74.81
2022-12-31T08:37:29.771Z,74.31
2022-12-31T08:40:13.866Z,74.67
2022-12-31T08:42:53.637Z,74.49
2022-12-31T08:45:31.664Z,74.55
2022-12-31T08:48:04.200Z,74.07
2022-12-31T08:50:33.814Z,74.60
2022-12-31T08:53:02.063Z,74.06
2022-12-31T08:55:30.323Z,73.87
2022-12-31T08:58:11.133Z,73.76
2022-12-31T09:00:39.724Z,73.32
2022-12-31T09:03:27.023Z,73.36
2022-12-31T09:06:03.645Z,73.21
2022-12-31T09:08:39.188Z,73.35
2022-12-31T09:11:17.686Z,73.72
2022-12-31T09:14:10.780Z,73.52
2022-12-31T09:16:45.612Z,73.40
2022-12-31T09:19:13.103Z,73.40
2022-12-31T09:21:44.273Z,73.70
2022-12-31T09:24:13.479Z,72.70
2022-12-31T09:26:51.905Z,72.91
2022-12-31T09:29:32.730Z,72.25
2022-12-31T09:32:09.682Z,72.21
2022-12-31T09:34:45.904Z,72.76
2022-12-31T09:37:17.323Z,72.96
2022-12-31T09:39:46.978Z,72.91
2022-12-31T09:42:48.661Z,72.97
2022-12-31T09:45:54.937Z,72.32
2022-12-31T09:48:34.684Z,72.32
2022-12-31T09:51:20.303Z,72.55
2022-12-31T09:54:29.778Z,72.66
2022-12-31T09:57:08.739Z,72.82
2022-12-31T09:59:44.088Z,73.13
2022-12-31T10:02:24.662Z,72.68
2022-12-31T10:05:13.833Z,72.21
2022-12-31T10:07:53.529Z,72.73
2022-12-31T10:10:25.421Z,72.59
2022-12-31T10:13:10.149Z,72.90
2022-12-31T10:16:00.018Z,72.44
2022-12-31T10:18:43.978Z,71.89
2022-12-31T10:21:27.981Z,72.19
2022-12-31T10:24:35.200Z,71.50
2022-12-31T10:27:37.301Z,71.63
2022-12-31T10:30:16.114Z,71.42
2022-12-31T10:32:46.227Z,71.92
2022-12-31T10:35:24.503Z,71.13
2022-12-31T10:38:00.472Z,71.28
2022-12-31T10:40:48.996Z,70.94
2022-12-31T10:43:49.238Z,71.23
2022-12-31T10:46:43.840Z,71.59
2022-12-31T10:49:48.830Z,71.70
2022-12-31T10:52:47.931Z,71.26
2022-12-31T10:55:37.329Z,71.63
2022-12-31T10:58:30.433Z,71.64
2022-12-31T11:01:08.438Z,71.29
2022-12-31T11:04:11.508Z,71.16
2022-12-31T11:07:04.350Z,71.42
2022-12-31T11:10:09.535Z,71.13
2022-12-31T11:12:57.491Z,70.83
2022-12-31T11:15:50.425Z,70.95
2022-12-31T11:18:31.813Z,70.47
2022-12-31T11:21:14.574Z,71.21
2022-12-31T11:23:53.446Z,70.14
2022-12-31T11:26:34.481Z,70.16
2022-12-31T11:29:16.899Z,70.37
2022-12-31T11:32:14.636Z,70.55
2022-12-31T11:35:18.917Z,69.86
2022-12-31T11:37:48.638Z,70.50
2022-12-31T11:40:33.052Z,70.43
2022-12-31T11:43:04.856Z,70.32
2022-12-31T11:45:52.697Z,70.06
2022-12-31T11:48:30.950Z,70.16
2022-12-31T11:51:14.486Z,70.20
2022-12-31T11:54:04.880Z,69.95
2022-12-31T11:56:36.344Z,70.28
2022-12-31T11:59:15.732Z,69.99
2022-12-31T12:01:54.507Z,70.51
2022-12-31T12:04:22.016Z,70.21
2022-12-31T12:06:51.467Z,69.94
2022-12-31T12:09:26.904Z,69.99
2022-12-31T12:12:00.125Z,69.36
2022-12-31T12:14:33.454Z,69.66
2022-12-31T12:17:05.253Z,69.49
2022-12-31T12:19:34.683Z,70.15
2022-12-31T12:22:12.771Z,71.50
2022-12-31T12:24:40.519Z,71.98
2022-12-31T12:27:21.920Z,71.62
2022-12-31T12:29:49.615Z,71.93
2022-12-31T12:32:19.993Z,72.17
2022-12-31T12:34:50.115Z,72.32
2022-12-31T12:37:29.080Z,72.23
2022-12-31T12:39:58.526Z,72.39
2022-12-31T12:42:26.257Z,72.93
2022-12-31T12:45:05.459Z,74.06
2022-12-31T12:47:34.165Z,74.78
2022-12-31T12:50:02.032Z,75.25
2022-12-31T12:52:52.757Z,75.31
2022-12-31T12:55:28.069Z,75.42
2022-12-31T12:58:05.332Z,75.54
2022-12-31T13:00:38.634Z,76.11
2022-12-31T13:03:35.819Z,75.34
2022-12-31T13:06:18.644Z,75.07
2022-12-31T13:09:02.201Z,74.98
2022-12-31T13:11:37.864Z,74.90
2022-12-31T13:14:16.410Z,74.81
2022-12-31T13:16:48.519Z,74.56
2022-12-31T13:19:23.147Z,74.25
2022-12-31T13:21:58.815Z,73.93
2022-12-31T13:24:43.981Z,73.36
2022-12-31T13:27:20.023Z,73.58
2022-12-31T13:29:49.340Z,73.82
2022-12-31T13:32:20.969Z,74.09
2022-12-31T13:34:52.804Z,74.66
2022-12-31T13:37:28.134Z,74.91
2022-12-31T13:40:03.498Z,74.70
2022-12-31T13:42:40.950Z,74.43
2022-12-31T13:45:14.536Z,74.64
2022-12-31T13:47:46.904Z,74.07
2022-12-31T13:50:20.132Z,73.35
2022-12-31T13:52:52.298Z,72.56
2022-12-31T13:55:25.219Z,72.23
2022-12-31T13:57:57.596Z,71.83
2022-12-31T14:00:27.373Z,71.13
2022-12-31T14:03:11.302Z,70.75
2022-12-31T14:05:48.275Z,70.05
2022-12-31T14:08:16.719Z,70.08
2022-12-31T14:10:58.603Z,69.81
2022-12-31T14:13:38.555Z,69.18
2022-12-31T14:16:16.120Z,69.13
2022-12-31T14:18:53.680Z,68.86
2022-12-31T14:21:25.069Z,68.88
2022-12-31T14:24:00.389Z,68.76
2022-12-31T14:26:34.043Z,68.54
2022-12-31T14:29:15.438Z,68.93
2022-12-31T14:32:02.344Z,69.00
2022-12-31T14:34:36.408Z,69.41
2022-12-31T14:37:12.844Z,69.27
2022-12-31T14:39:49.345Z,69.20
2022-12-31T14:42:29.632Z,69.59
2022-12-31T14:45:08.400Z,70.42
2022-12-31T14:47:51.394Z,70.78
2022-12-31T14:50:23.661Z,70.37
2022-12-31T14:52:53.901Z,70.65
2022-12-31T14:55:29.827Z,71.22
2022-12-31T15:00:56.573Z,72.30
2022-12-31T15:03:27.453Z,72.10
2022-12-31T15:06:00.163Z,72.62
2022-12-31T15:08:41.807Z,73.08
2022-12-31T15:11:24.155Z,73.23
2022-12-31T15:14:22.813Z,73.31
2022-12-31T15:16:57.606Z,73.04
2022-12-31T15:19:47.269Z,72.92
2022-12-31T15:22:28.730Z,72.65
2022-12-31T15:24:56.586Z,72.40
2022-12-31T15:27:34.531Z,73.23
2022-12-31T15:30:04.800Z,73.50
2022-12-31T15:32:36.917Z,73.72
2022-12-31T15:35:25.491Z,73.28
2022-12-31T15:38:00.069Z,73.05
2022-12-31T15:40:29.028Z,73.07
2022-12-31T15:43:02.176Z,72.74
2022-12-31T15:45:34.820Z,72.74
2022-12-31T15:48:07.875Z,72.99
2022-12-31T15:50:37.920Z,72.66
2022-12-31T15:53:07.538Z,72.09
2022-12-31T15:55:43.252Z,72.13
2022-12-31T15:58:13.222Z,72.03
2022-12-31T16:00:57.320Z,71.14
2022-12-31T16:03:27.890Z,71.42
2022-12-31T16:06:00.927Z,71.15
2022-12-31T16:08:32.021Z,70.98
2022-12-31T16:11:00.264Z,70.77
2022-12-31T16:13:30.423Z,70.58
2022-12-31T16:16:03.741Z,70.39
2022-12-31T16:18:38.869Z,69.77
2022-12-31T16:21:06.983Z,69.75
2022-12-31T16:23:40.380Z,69.89
2022-12-31T16:26:11.964Z,69.69
2022-12-31T16:28:39.502Z,69.87
2022-12-31T16:31:17.564Z,69.03
2022-12-31T16:33:45.391Z,70.10
2022-12-31T16:36:20.820Z,69.32
2022-12-31T16:38:49.139Z,69.33
2022-12-31T16:41:19.543Z,69.08
2022-12-31T16:43:48.329Z,68.79
2022-12-31T16:46:21.165Z,68.70
2022-12-31T16:48:51.457Z,68.92
2022-12-31T16:51:22.010Z,69.33
2022-12-31T16:53:50.378Z,68.76
2022-12-31T16:56:25.085Z,68.33
2022-12-31T16:58:59.487Z,68.77
2022-12-31T17:01:31.437Z,68.64
2022-12-31T17:04:01.573Z,68.82
2022-12-31T17:06:33.213Z,68.67
2022-12-31T17:09:14.384Z,68.52
2022-12-31T17:11:50.320Z,68.67
2022-12-31T17:14:19.913Z,68.50
2022-12-31T17:17:03.502Z,67.98
2022-12-31T17:19:41.265Z,67.73
2022-12-31T17:22:14.130Z,68.67
2022-12-31T17:24:41.685Z,67.14
2022-12-31T17:27:10.400Z,67.90
2022-12-31T17:29:38.292Z,67.38
2022-12-31T17:32:26.400Z,67.14
2022-12-31T17:34:53.911Z,67.40
2022-12-31T17:37:26.135Z,66.95
2022-12-31T17:39:55.103Z,66.69
2022-12-31T17:42:57.163Z,66.57
2022-12-31T17:48:46.875Z,66.09
2022-12-31T17:51:14.587Z,65.97
2022-12-31T17:57:52.999Z,65.48
2022-12-31T18:00:22.680Z,64.64
2022-12-31T18:02:50.441Z,64.77
2022-12-31T18:05:26.495Z,64.09
2022-12-31T18:08:07.267Z,63.93
2022-12-31T18:10:45.594Z,64.37
2022-12-31T18:13:20.726Z,64.09
2022-12-31T18:15:52.974Z,63.53
2022-12-31T18:18:26.165Z,64.12
2022-12-31T18:21:01.254Z,62.91
2022-12-31T18:23:34.344Z,63.54
2022-12-31T18:26:04.996Z,63.37
2022-12-31T18:28:38.104Z,62.90
2022-12-31T18:31:05.748Z,62.67
2022-12-31T18:33:33.466Z,62.88
2022-12-31T18:36:10.545Z,62.48
2022-12-31T18:38:39.213Z,62.52
2022-12-31T18:41:07.942Z,62.12
2022-12-31T18:43:35.462Z,61.88
2022-12-31T18:46:11.679Z,61.41
2022-12-31T18:48:41.259Z,61.16
2022-12-31T18:51:13.303Z,60.86
2022-12-31T18:53:40.778Z,61.15
2022-12-31T18:56:13.111Z,60.94
2022-12-31T18:58:40.706Z,60.35
2022-12-31T19:01:25.191Z,60.56
2022-12-31T19:03:52.919Z,60.33
2022-12-31T19:06:22.687Z,59.55
2022-12-31T19:08:50.216Z,59.95
2022-12-31T19:11:17.866Z,59.21
2022-12-31T19:13:45.600Z,59.72
2022-12-31T19:16:13.861Z,59.28
2022-12-31T19:18:42.198Z,59.23
2022-12-31T19:21:16.418Z,58.46
2022-12-31T19:23:45.732Z,58.86
2022-12-31T19:26:16.357Z,58.61
2022-12-31T19:28:44.478Z,58.36
2022-12-31T19:31:12.407Z,57.74
2022-12-31T19:33:39.906Z,57.88
2022-12-31T19:36:14.472Z,58.45
2022-12-31T19:38:41.985Z,57.34
2022-12-31T19:41:15.887Z,56.98
2022-12-31T19:43:43.762Z,56.37
2022-12-31T19:46:13.404Z,56.42
2022-12-31T19:48:40.974Z,56.75
2022-12-31T19:51:10.220Z,56.77
2022-12-31T19:53:37.779Z,56.38
2022-12-31T19:56:06.092Z,56.26
2022-12-31T19:58:34.871Z,56.05
2022-12-31T20:01:03.437Z,55.89
2022-12-31T20:03:32.350Z,55.10
2022-12-31T20:06:05.459Z,55.27
2022-12-31T20:08:33.382Z,55.21
2022-12-31T20:11:08.574Z,55.13
2022-12-31T20:13:37.292Z,54.81
2022-12-31T20:16:07.689Z,54.79
2022-12-31T20:18:37.434Z,55.22
2022-12-31T20:21:05.347Z,54.49
2022-12-31T20:23:34.189Z,54.07
2022-12-31T20:26:02.507Z,54.14
2022-12-31T20:28:30.651Z,53.93
2022-12-31T20:30:59.526Z,54.12
2022-12-31T20:33:27.029Z,53.95
2022-12-31T20:35:54.470Z,53.64
2022-12-31T20:38:21.991Z,53.73
2022-12-31T20:40:49.715Z,53.71
2022-12-31T20:43:17.205Z,54.06
2022-12-31T20:45:44.776Z,53.52
2022-12-31T20:48:13.640Z,53.29
2022-12-31T20:50:41.093Z,53.50
2022-12-31T20:53:08.562Z,53.05
2022-12-31T20:55:38.653Z,52.84
2022-12-31T20:58:06.268Z,52.80
2022-12-31T21:00:33.776Z,52.75
2022-12-31T21:03:14.407Z,53.05
2022-12-31T21:05:51.706Z,52.61
2022-12-31T21:08:20.591Z,52.55
2022-12-31T21:10:50.807Z,51.83
2022-12-31T21:13:21.508Z,52.07
2022-12-31T21:15:49.342Z,52.34
2022-12-31T21:18:17.430Z,51.69
2022-12-31T21:20:47.073Z,51.69
2022-12-31T21:23:16.052Z,51.81
2022-12-31T21:25:44.353Z,51.24
2022-12-31T21:28:12.711Z,51.23
2022-12-31T21:30:40.881Z,51.69
2022-12-31T21:33:09.060Z,51.45
2022-12-31T21:35:48.681Z,50.66
2022-12-31T21:38:22.935Z,50.94
2022-12-31T21:40:50.494Z,51.14
2022-12-31T21:43:18.410Z,51.49
2022-12-31T21:45:45.892Z,50.78
2022-12-31T21:48:21.297Z,51.27
2022-12-31T21:50:50.624Z,51.55
2022-12-31T21:53:23.721Z,51.40
2022-12-31T21:56:08.291Z,51.22
2022-12-31T21:58:36.543Z,51.55
2022-12-31T22:01:22.587Z,50.86
2022-12-31T22:03:50.381Z,51.46
2022-12-31T22:06:21.475Z,51.03
2022-12-31T22:08:51.368Z,51.05
2022-12-31T22:11:22.068Z,50.94
2022-12-31T22:13:49.985Z,51.28
2022-12-31T22:16:19.955Z,50.82
2022-12-31T22:18:48.090Z,51.14
2022-12-31T22:21:19.178Z,51.05
2022-12-31T22:23:48.253Z,51.16
2022-12-31T22:26:17.732Z,51.14
2022-12-31T22:28:47.513Z,51.56
2022-12-31T22:31:16.740Z,50.97
2022-12-31T22:33:44.847Z,51.32
2022-12-31T22:36:14.475Z,51.47
2022-12-31T22:38:41.968Z,51.57
2022-12-31T22:41:11.457Z,51.30
2022-12-31T22:43:41.289Z,51.29
2022-12-31T22:46:12.803Z,51.67
2022-12-31T22:48:41.487Z,51.48
2022-12-31T22:51:10.000Z,51.28
2022-12-31T22:53:38.405Z,51.51
2022-12-31T22:56:06.490Z,51.55
2022-12-31T22:58:34.621Z,51.56
2022-12-31T23:01:05.567Z,51.43
2022-12-31T23:03:34.591Z,51.09
2022-12-31T23:06:02.124Z,51.61
2022-12-31T23:08:29.761Z,51.27
2022-12-31T23:11:01.557Z,51.03
2022-12-31T23:13:51.090Z,51.40
2022-12-31T23:16:37.015Z,51.79
2022-12-31T23:19:23.961Z,51.24
2022-12-31T23:22:09.289Z,51.46
2022-12-31T23:24:37.199Z,51.45
2022-12-31T23:27:04.873Z,51.44
2022-12-31T23:29:32.539Z,51.04
2022-12-31T23:32:00.612Z,51.09
2022-12-31T23:34:29.413Z,51.22
2022-12-31T23:36:56.925Z,51.31
2022-12-31T23:39:24.439Z,50.90
2022-12-31T23:41:51.879Z,50.70
2022-12-31T23:44:19.634Z,50.75
2022-12-31T23:46:47.176Z,51.21
2022-12-31T23:49:14.706Z,50.68
2022-12-31T23:51:43.649Z,50.92
2022-12-31T23:54:12.663Z,50.69
2022-12-31T23:56:40.178Z,50.42
2022-12-31T23:59:07.772Z,50.34
